Time;durP1;ratioP1;P1;durP2;ratioP2;P2;SDS_P1;SDS_P2;PMS_P1;PMS_P2;Temp;Humidity;BMP_temperature;BMP_pressure;BME280_temperature;BME280_humidity;BME280_pressure;Samples;Min_cycle;Max_cycle;Signal;HPM_P1;HPM_P2
2021/07/28 00:01:53;;;;;;;9.20;5.27;;;;;;;;;;5129746;27;20428;-65
2021/07/28 00:04:20;;;;;;;7.70;4.30;;;;;;;;;;5131124;27;20080;-65
2021/07/28 00:06:46;;;;;;;6.67;4.47;;;;;;;;;;5135300;27;20022;-65
2021/07/28 00:09:14;;;;;;;8.73;4.97;;;;;;;;;;5135335;27;20043;-66
2021/07/28 00:11:41;;;;;;;9.83;5.53;;;;;;;;;;5135075;27;20027;-66
2021/07/28 00:14:07;;;;;;;12.27;4.73;;;;;;;;;;5135076;27;20076;-65
2021/07/28 00:16:34;;;;;;;6.20;4.00;;;;;;;;;;5141765;27;20498;-66
2021/07/28 00:24:15;;;;;;;;;;;;;;;;;;5130264;27;20050;-65
2021/07/28 00:26:42;;;;;;;7.17;4.57;;;;;;;;;;5130550;27;19903;-65
2021/07/28 00:29:09;;;;;;;7.60;4.27;;;;;;;;;;5141934;27;20054;-66
2021/07/28 00:31:36;;;;;;;7.67;4.87;;;;;;;;;;5155527;27;20030;-65
2021/07/28 00:34:02;;;;;;;6.13;4.87;;;;;;;;;;5155483;27;20531;-65
2021/07/28 00:36:29;;;;;;;7.70;5.23;;;;;;;;;;5154877;27;20031;-65
2021/07/28 00:38:56;;;;;;;7.03;4.90;;;;;;;;;;5148487;27;20024;-65
2021/07/28 00:41:23;;;;;;;6.90;5.17;;;;;;;;;;5129205;27;20110;-64
2021/07/28 00:43:49;;;;;;;14.60;9.17;;;;;;;;;;5128857;27;20023;-65
2021/07/28 00:46:16;;;;;;;12.27;7.50;;;;;;;;;;5129156;27;20027;-65
2021/07/28 00:48:43;;;;;;;9.67;6.07;;;;;;;;;;5131521;27;20129;-65
2021/07/28 00:51:11;;;;;;;8.90;5.03;;;;;;;;;;5155250;27;20037;-65
2021/07/28 00:53:38;;;;;;;5.70;4.50;;;;;;;;;;5154986;27;20019;-65
2021/07/28 00:56:05;;;;;;;10.50;4.87;;;;;;;;;;5154999;27;20124;-65
2021/07/28 00:58:32;;;;;;;9.77;5.93;;;;;;;;;;5153179;27;20106;-66
2021/07/28 01:00:59;;;;;;;8.80;5.37;;;;;;;;;;5154798;27;20098;-65
2021/07/28 01:03:26;;;;;;;8.90;5.03;;;;;;;;;;5149326;27;20033;-66
2021/07/28 01:05:56;;;;;;;9.23;5.17;;;;;;;;;;5148949;27;20027;-66
2021/07/28 01:08:23;;;;;;;9.70;5.60;;;;;;;;;;5143708;27;20026;-65
2021/07/28 01:10:50;;;;;;;8.50;5.60;;;;;;;;;;5128429;27;20031;-66
2021/07/28 01:13:26;;;;;;;7.77;4.77;;;;;;;;;;5133444;27;20035;-66
2021/07/28 01:15:59;;;;;;;6.27;4.20;;;;;;;;;;5134051;27;20423;-65
2021/07/28 01:18:26;;;;;;;10.37;4.53;;;;;;;;;;5138773;27;20496;-66
2021/07/28 01:20:53;;;;;;;9.60;5.27;;;;;;;;;;5154732;27;20465;-65
2021/07/28 01:23:21;;;;;;;7.17;4.80;;;;;;;;;;5154498;27;20485;-65
2021/07/28 01:25:49;;;;;;;8.53;4.73;;;;;;;;;;5148705;27;20027;-65
2021/07/28 01:28:16;;;;;;;9.47;5.00;;;;;;;;;;5146568;27;20076;-65
2021/07/28 01:30:44;;;;;;;9.27;4.53;;;;;;;;;;5128364;27;20019;-65
2021/07/28 01:33:10;;;;;;;7.87;5.00;;;;;;;;;;5127825;27;20573;-65
2021/07/28 01:35:38;;;;;;;10.23;5.70;;;;;;;;;;5132688;27;20102;-66
2021/07/28 01:38:05;;;;;;;7.60;5.10;;;;;;;;;;5134140;27;20019;-66
2021/07/28 01:40:36;;;;;;;9.37;6.50;;;;;;;;;;5133373;27;20027;-66
2021/07/28 01:43:12;;;;;;;13.83;8.50;;;;;;;;;;5133531;27;20027;-65
2021/07/28 01:45:39;;;;;;;16.87;7.50;;;;;;;;;;5133299;27;20015;-65
2021/07/28 01:48:06;;;;;;;14.23;7.00;;;;;;;;;;5128803;27;20065;-65
2021/07/28 01:50:33;;;;;;;7.70;6.03;;;;;;;;;;5147982;27;20030;-67
2021/07/28 01:53:03;;;;;;;11.03;6.50;;;;;;;;;;5127836;27;20034;-66
2021/07/28 01:55:30;;;;;;;9.37;6.17;;;;;;;;;;5127747;27;20036;-65
2021/07/28 01:57:58;;;;;;;15.70;7.23;;;;;;;;;;5132145;27;20098;-65
2021/07/28 02:00:25;;;;;;;10.27;5.67;;;;;;;;;;5134407;27;20106;-65
2021/07/28 02:02:52;;;;;;;9.43;5.83;;;;;;;;;;5133315;27;20094;-65
2021/07/28 02:05:19;;;;;;;9.17;6.13;;;;;;;;;;5133100;27;20102;-65
2021/07/28 02:07:46;;;;;;;6.80;5.27;;;;;;;;;;5132831;27;20031;-66
2021/07/28 02:10:13;;;;;;;6.87;5.20;;;;;;;;;;5144751;27;20034;-65
2021/07/28 02:12:39;;;;;;;6.03;4.50;;;;;;;;;;5148315;27;20555;-65
2021/07/28 02:15:06;;;;;;;12.40;6.23;;;;;;;;;;5148339;27;20468;-65
2021/07/28 02:17:33;;;;;;;8.83;6.33;;;;;;;;;;5148679;27;20023;-65
2021/07/28 02:20:00;;;;;;;8.77;6.00;;;;;;;;;;5149845;27;20034;-65
2021/07/28 02:22:27;;;;;;;7.97;5.80;;;;;;;;;;5153946;27;20015;-65
2021/07/28 02:24:54;;;;;;;9.07;5.63;;;;;;;;;;5153387;27;20110;-65
2021/07/28 02:27:20;;;;;;;11.13;5.73;;;;;;;;;;5153461;27;20094;-65
2021/07/28 02:29:47;;;;;;;9.27;5.80;;;;;;;;;;5151905;27;20355;-65
2021/07/28 02:32:14;;;;;;;9.33;5.63;;;;;;;;;;5134967;27;20070;-65
2021/07/28 02:34:41;;;;;;;9.30;5.57;;;;;;;;;;5127433;28;20019;-65
2021/07/28 02:37:07;;;;;;;11.13;5.80;;;;;;;;;;5127502;28;20084;-65
2021/07/28 02:39:34;;;;;;;12.77;6.50;;;;;;;;;;5127693;28;20055;-65
2021/07/28 02:42:01;;;;;;;7.93;6.10;;;;;;;;;;5131254;27;20023;-65
2021/07/28 02:44:28;;;;;;;10.43;6.13;;;;;;;;;;5132538;28;20079;-65
2021/07/28 02:46:54;;;;;;;22.07;7.73;;;;;;;;;;5144465;27;20038;-65
2021/07/28 02:49:21;;;;;;;9.90;6.73;;;;;;;;;;5153605;27;20447;-65
2021/07/28 02:51:48;;;;;;;17.50;7.17;;;;;;;;;;5153535;27;20490;-64
2021/07/28 02:54:17;;;;;;;15.63;8.43;;;;;;;;;;5149778;27;20495;-65
2021/07/28 02:56:44;;;;;;;13.03;8.20;;;;;;;;;;5147607;27;20012;-64
2021/07/28 02:59:11;;;;;;;13.27;7.53;;;;;;;;;;5150105;27;20076;-65
2021/07/28 03:01:37;;;;;;;15.03;9.53;;;;;;;;;;5141591;27;20049;-65
2021/07/28 03:04:04;;;;;;;13.93;8.23;;;;;;;;;;5132809;27;20342;-64
2021/07/28 03:06:31;;;;;;;17.53;9.27;;;;;;;;;;5136459;27;20035;-65
2021/07/28 03:08:58;;;;;;;10.40;6.47;;;;;;;;;;5136512;27;20019;-64
2021/07/28 03:11:25;;;;;;;8.30;5.97;;;;;;;;;;5142844;27;20045;-64
2021/07/28 03:13:51;;;;;;;8.03;5.93;;;;;;;;;;5157330;27;20022;-64
2021/07/28 03:16:18;;;;;;;11.47;6.23;;;;;;;;;;5155109;27;20536;-64
2021/07/28 03:18:45;;;;;;;8.93;6.03;;;;;;;;;;5151640;27;20019;-64
2021/07/28 03:21:12;;;;;;;7.00;5.00;;;;;;;;;;5146201;27;20023;-66
2021/07/28 03:23:39;;;;;;;10.30;5.87;;;;;;;;;;5139906;27;20094;-65
2021/07/28 03:26:06;;;;;;;9.70;6.23;;;;;;;;;;5141617;27;20034;-64
2021/07/28 03:28:36;;;;;;;8.90;5.93;;;;;;;;;;5153965;27;20039;-63
2021/07/28 03:31:02;;;;;;;9.63;5.97;;;;;;;;;;5135872;27;20030;-62
2021/07/28 03:33:29;;;;;;;11.70;6.20;;;;;;;;;;5135820;27;20087;-63
2021/07/28 03:35:56;;;;;;;8.67;5.13;;;;;;;;;;5154243;27;20031;-63
2021/07/28 03:38:23;;;;;;;10.33;5.40;;;;;;;;;;5154889;27;20023;-63
2021/07/28 03:40:50;;;;;;;8.33;5.57;;;;;;;;;;5151287;27;20030;-63
2021/07/28 03:43:17;;;;;;;6.87;5.37;;;;;;;;;;5150628;27;20027;-63
2021/07/28 03:45:44;;;;;;;10.27;5.50;;;;;;;;;;5130778;27;20053;-63
2021/07/28 03:48:11;;;;;;;9.70;6.57;;;;;;;;;;5130721;27;20027;-63
2021/07/28 03:50:37;;;;;;;9.80;5.53;;;;;;;;;;5135644;27;20019;-63
2021/07/28 03:53:04;;;;;;;6.47;4.40;;;;;;;;;;5117267;27;20038;-62
2021/07/28 03:55:32;;;;;;;10.73;5.33;;;;;;;;;;5153334;27;20073;-63
2021/07/28 03:57:58;;;;;;;7.87;5.13;;;;;;;;;;5156501;27;20059;-63
2021/07/28 04:00:25;;;;;;;7.50;5.17;;;;;;;;;;5155916;27;20042;-63
2021/07/28 04:02:52;;;;;;;8.50;4.80;;;;;;;;;;5150895;27;20027;-63
2021/07/28 04:05:19;;;;;;;6.87;5.10;;;;;;;;;;5133993;27;20031;-63
2021/07/28 04:07:46;;;;;;;7.67;5.07;;;;;;;;;;5130017;27;20023;-62
2021/07/28 04:10:13;;;;;;;8.87;5.63;;;;;;;;;;5130787;27;20493;-63
2021/07/28 04:12:40;;;;;;;9.33;4.57;;;;;;;;;;5155454;27;20038;-62
2021/07/28 04:15:07;;;;;;;8.37;4.80;;;;;;;;;;5155888;27;20022;-62
2021/07/28 04:17:34;;;;;;;7.57;4.80;;;;;;;;;;5155846;27;20050;-62
2021/07/28 04:20:01;;;;;;;6.33;4.30;;;;;;;;;;5155928;27;20046;-62
2021/07/28 04:22:28;;;;;;;8.53;4.57;;;;;;;;;;5135281;27;20031;-63
2021/07/28 04:24:54;;;;;;;14.20;4.80;;;;;;;;;;5129840;27;20107;-63
2021/07/28 04:27:21;;;;;;;10.67;4.87;;;;;;;;;;5129893;27;20016;-63
2021/07/28 04:29:51;;;;;;;9.27;5.17;;;;;;;;;;5129609;27;20438;-62
2021/07/28 04:32:18;;;;;;;7.70;4.90;;;;;;;;;;5147194;27;20043;-62
2021/07/28 04:34:44;;;;;;;8.63;5.00;;;;;;;;;;5136138;27;20418;-62
2021/07/28 04:37:11;;;;;;;8.70;4.30;;;;;;;;;;5155669;27;20027;-62
2021/07/28 04:39:38;;;;;;;14.00;5.57;;;;;;;;;;5155487;27;20027;-63
2021/07/28 04:42:05;;;;;;;7.33;5.30;;;;;;;;;;5138643;27;20037;-62
2021/07/28 04:44:31;;;;;;;8.63;5.03;;;;;;;;;;5134722;27;20026;-62
2021/07/28 04:46:58;;;;;;;8.67;5.40;;;;;;;;;;5130460;27;20023;-63
2021/07/28 04:49:25;;;;;;;8.40;5.03;;;;;;;;;;5128794;27;20438;-63
2021/07/28 04:51:52;;;;;;;7.37;4.70;;;;;;;;;;5142969;27;20031;-63
2021/07/28 04:54:19;;;;;;;8.20;4.57;;;;;;;;;;5149870;27;20035;-63
2021/07/28 04:56:45;;;;;;;10.40;4.33;;;;;;;;;;5152916;27;20027;-62
2021/07/28 04:59:12;;;;;;;14.17;5.10;;;;;;;;;;5155163;27;20011;-62
2021/07/28 05:01:39;;;;;;;6.70;4.60;;;;;;;;;;5142496;27;20019;-62
2021/07/28 05:04:06;;;;;;;8.30;5.17;;;;;;;;;;5134279;27;20026;-62
2021/07/28 05:06:34;;;;;;;7.37;4.73;;;;;;;;;;5133944;27;20019;-62
2021/07/28 05:09:00;;;;;;;13.03;4.60;;;;;;;;;;5130887;27;20031;-62
2021/07/28 05:11:27;;;;;;;8.57;4.50;;;;;;;;;;5138696;27;20027;-62
2021/07/28 05:13:54;;;;;;;6.57;5.07;;;;;;;;;;5130804;27;20023;-62
2021/07/28 05:16:21;;;;;;;9.47;5.33;;;;;;;;;;5149376;27;20023;-62
2021/07/28 05:18:47;;;;;;;7.00;4.20;;;;;;;;;;5151640;27;20019;-62
2021/07/28 05:21:14;;;;;;;7.33;4.67;;;;;;;;;;5145636;27;20019;-62
2021/07/28 05:23:43;;;;;;;8.30;4.80;;;;;;;;;;5133822;27;20072;-62
2021/07/28 05:26:09;;;;;;;6.67;4.00;;;;;;;;;;5134753;27;20484;-63
2021/07/28 05:28:36;;;;;;;9.17;5.13;;;;;;;;;;5133580;27;20466;-62
2021/07/28 05:31:03;;;;;;;7.47;4.53;;;;;;;;;;5137209;27;20488;-62
2021/07/28 05:33:30;;;;;;;6.27;4.30;;;;;;;;;;5149295;27;20026;-62
2021/07/28 05:35:56;;;;;;;5.93;3.77;;;;;;;;;;5148982;27;20405;-62
2021/07/28 05:38:23;;;;;;;6.03;3.97;;;;;;;;;;5149122;27;20022;-63
2021/07/28 05:40:55;;;;;;;7.83;4.23;;;;;;;;;;5145733;27;20042;-62
2021/07/28 05:43:22;;;;;;;6.47;4.17;;;;;;;;;;5133533;27;20034;-62
2021/07/28 05:45:52;;;;;;;6.07;3.93;;;;;;;;;;5133781;27;20096;-62
2021/07/28 05:48:18;;;;;;;6.33;3.87;;;;;;;;;;5133565;27;20409;-62
2021/07/28 05:50:45;;;;;;;5.73;3.53;;;;;;;;;;5136666;27;20079;-62
2021/07/28 05:53:12;;;;;;;6.07;3.90;;;;;;;;;;5152023;27;20042;-63
2021/07/28 05:55:39;;;;;;;7.33;4.03;;;;;;;;;;5130163;27;20114;-62
2021/07/28 05:58:05;;;;;;;8.30;4.70;;;;;;;;;;5148634;27;20019;-62
2021/07/28 06:00:32;;;;;;;8.13;4.67;;;;;;;;;;5147135;27;20031;-62
2021/07/28 06:02:59;;;;;;;8.20;4.70;;;;;;;;;;5128902;27;20023;-62
2021/07/28 06:05:26;;;;;;;8.27;5.00;;;;;;;;;;5133257;27;20079;-62
2021/07/28 06:07:52;;;;;;;10.47;5.13;;;;;;;;;;5133454;27;20019;-62
2021/07/28 06:10:19;;;;;;;8.47;4.23;;;;;;;;;;5133251;28;20012;-62
2021/07/28 06:12:46;;;;;;;6.80;4.80;;;;;;;;;;5152834;27;20034;-63
2021/07/28 06:15:13;;;;;;;6.70;4.43;;;;;;;;;;5152575;27;20098;-62
2021/07/28 06:17:40;;;;;;;7.70;5.17;;;;;;;;;;5148596;27;20059;-63
2021/07/28 06:20:07;;;;;;;6.57;4.90;;;;;;;;;;5148175;27;20027;-62
2021/07/28 06:22:34;;;;;;;8.57;4.90;;;;;;;;;;5129969;27;20032;-62
2021/07/28 06:25:02;;;;;;;8.53;4.10;;;;;;;;;;5128097;28;20038;-62
2021/07/28 06:27:28;;;;;;;8.33;5.07;;;;;;;;;;5132918;28;20027;-62
2021/07/28 06:29:55;;;;;;;7.30;4.80;;;;;;;;;;5133065;28;20023;-63
2021/07/28 06:32:23;;;;;;;7.93;4.83;;;;;;;;;;5129846;27;20031;-62
2021/07/28 06:34:50;;;;;;;5.93;4.63;;;;;;;;;;5157519;27;20050;-62
2021/07/28 06:37:17;;;;;;;8.90;5.13;;;;;;;;;;5157262;27;20525;-62
2021/07/28 06:39:43;;;;;;;8.00;5.00;;;;;;;;;;5152413;27;20108;-62
2021/07/28 06:42:10;;;;;;;9.23;4.83;;;;;;;;;;5138101;27;20465;-62
2021/07/28 06:44:37;;;;;;;12.33;4.83;;;;;;;;;;5131723;27;20015;-62
2021/07/28 06:47:04;;;;;;;7.00;4.73;;;;;;;;;;5131645;27;20480;-62
2021/07/28 06:49:31;;;;;;;7.40;4.47;;;;;;;;;;5136238;27;20098;-62
2021/07/28 06:51:58;;;;;;;6.03;4.67;;;;;;;;;;5148493;27;20042;-62
2021/07/28 06:54:24;;;;;;;6.37;4.80;;;;;;;;;;5157203;27;20019;-62
2021/07/28 06:56:51;;;;;;;6.97;4.70;;;;;;;;;;5157592;27;20031;-62
2021/07/28 06:59:18;;;;;;;7.67;4.77;;;;;;;;;;5157532;27;20042;-62
2021/07/28 07:01:45;;;;;;;6.57;4.43;;;;;;;;;;5142268;27;20035;-62
2021/07/28 07:04:11;;;;;;;8.27;4.33;;;;;;;;;;5131188;27;20030;-62
2021/07/28 07:06:38;;;;;;;8.70;4.13;;;;;;;;;;5131011;27;20024;-62
2021/07/28 07:09:05;;;;;;;8.63;4.77;;;;;;;;;;5131009;27;20020;-62
2021/07/28 07:11:32;;;;;;;6.57;4.70;;;;;;;;;;5142217;27;20522;-62
2021/07/28 07:13:59;;;;;;;7.87;5.10;;;;;;;;;;5157196;27;20023;-62
2021/07/28 07:16:25;;;;;;;8.03;4.40;;;;;;;;;;5146530;27;20451;-62
2021/07/28 07:18:52;;;;;;;7.53;4.80;;;;;;;;;;5136270;27;20038;-62
2021/07/28 07:21:19;;;;;;;5.43;4.17;;;;;;;;;;5136354;27;20023;-62
2021/07/28 07:23:46;;;;;;;7.53;5.10;;;;;;;;;;5131808;27;20023;-62
2021/07/28 07:26:12;;;;;;;7.03;5.10;;;;;;;;;;5137936;27;20522;-62
2021/07/28 07:28:39;;;;;;;7.07;4.13;;;;;;;;;;5151435;27;20022;-62
2021/07/28 07:31:10;;;;;;;6.97;3.97;;;;;;;;;;5132823;27;20030;-62
2021/07/28 07:33:40;;;;;;;13.17;5.27;;;;;;;;;;5155013;27;20035;-62
2021/07/28 07:36:08;;;;;;;6.77;5.00;;;;;;;;;;5149941;27;20030;-62
2021/07/28 07:38:36;;;;;;;7.27;4.60;;;;;;;;;;5135881;27;20080;-62
2021/07/28 07:41:02;;;;;;;6.93;4.07;;;;;;;;;;5135892;27;20019;-62
2021/07/28 07:43:29;;;;;;;5.60;3.87;;;;;;;;;;5152451;27;20034;-62
2021/07/28 07:45:56;;;;;;;5.50;4.00;;;;;;;;;;5139571;27;20024;-62
2021/07/28 07:48:24;;;;;;;7.93;4.63;;;;;;;;;;5130393;27;20032;-62
2021/07/28 07:50:51;;;;;;;6.97;4.30;;;;;;;;;;5130422;27;20568;-62
2021/07/28 07:53:18;;;;;;;5.77;4.00;;;;;;;;;;5130371;27;20174;-62
2021/07/28 07:55:45;;;;;;;7.23;4.33;;;;;;;;;;5142280;27;20023;-62
2021/07/28 07:58:11;;;;;;;11.13;4.80;;;;;;;;;;5156208;27;20653;-62
2021/07/28 08:00:38;;;;;;;7.03;4.77;;;;;;;;;;5127542;27;20028;-62
2021/07/28 08:03:05;;;;;;;6.10;4.70;;;;;;;;;;5135337;27;20023;-62
2021/07/28 08:05:35;;;;;;;6.33;4.33;;;;;;;;;;5135512;27;20015;-61
2021/07/28 08:08:02;;;;;;;5.80;4.23;;;;;;;;;;5132337;27;20023;-62
2021/07/28 08:10:28;;;;;;;9.10;5.13;;;;;;;;;;5137232;27;20033;-63
2021/07/28 08:12:55;;;;;;;8.70;4.60;;;;;;;;;;5150486;27;20026;-62
2021/07/28 08:15:22;;;;;;;6.47;4.53;;;;;;;;;;5150564;27;20476;-62
2021/07/28 08:17:49;;;;;;;8.23;4.80;;;;;;;;;;5152886;27;20481;-62
2021/07/28 08:20:16;;;;;;;5.80;4.67;;;;;;;;;;5150225;27;20477;-62
2021/07/28 08:22:43;;;;;;;7.73;4.33;;;;;;;;;;5135102;27;20373;-61
2021/07/28 08:25:10;;;;;;;9.17;5.43;;;;;;;;;;5135058;27;20019;-63
2021/07/28 08:27:36;;;;;;;9.17;4.97;;;;;;;;;;5134910;27;20473;-62
2021/07/28 08:30:03;;;;;;;8.17;4.70;;;;;;;;;;5135264;27;20030;-62
2021/07/28 08:32:30;;;;;;;6.87;4.90;;;;;;;;;;5148214;27;20445;-62
2021/07/28 08:34:57;;;;;;;7.40;4.37;;;;;;;;;;5150328;27;20027;-62
2021/07/28 08:37:24;;;;;;;8.70;5.40;;;;;;;;;;5149923;27;20030;-62
2021/07/28 08:39:50;;;;;;;9.50;4.63;;;;;;;;;;5150430;27;20071;-62
2021/07/28 08:42:18;;;;;;;11.33;4.70;;;;;;;;;;5149500;27;20033;-61
2021/07/28 08:44:47;;;;;;;9.77;5.37;;;;;;;;;;5155439;27;20023;-61
2021/07/28 08:47:14;;;;;;;6.70;4.60;;;;;;;;;;5155188;27;20038;-62
2021/07/28 08:49:40;;;;;;;9.47;5.10;;;;;;;;;;5155447;27;20053;-61
2021/07/28 08:52:10;;;;;;;9.17;5.00;;;;;;;;;;5140482;27;20159;-61
2021/07/28 08:54:37;;;;;;;13.27;4.97;;;;;;;;;;5128598;27;20023;-62
2021/07/28 08:57:04;;;;;;;7.80;4.53;;;;;;;;;;5128364;27;20033;-62
2021/07/28 08:59:32;;;;;;;5.97;4.40;;;;;;;;;;5128984;27;20038;-62
2021/07/28 09:02:00;;;;;;;8.83;4.90;;;;;;;;;;5140644;27;20045;-61
2021/07/28 09:04:27;;;;;;;6.10;4.43;;;;;;;;;;5155032;27;20023;-62
2021/07/28 09:06:54;;;;;;;6.63;4.30;;;;;;;;;;5154815;27;20038;-61
2021/07/28 09:09:21;;;;;;;6.87;4.90;;;;;;;;;;5154502;27;20025;-62
2021/07/28 09:11:52;;;;;;;8.70;5.00;;;;;;;;;;5145275;27;20546;-62
2021/07/28 09:14:22;;;;;;;6.70;4.97;;;;;;;;;;5132752;27;20023;-62
2021/07/28 09:16:49;;;;;;;11.10;4.93;;;;;;;;;;5128600;27;20023;-61
2021/07/28 09:19:35;;;;;;;7.03;4.50;;;;;;;;;;5128684;27;20027;-61
2021/07/28 09:22:06;;;;;;;6.43;4.47;;;;;;;;;;5138754;27;20015;-62
2021/07/28 09:24:33;;;;;;;8.40;4.97;;;;;;;;;;5150791;27;20034;-62
2021/07/28 09:26:59;;;;;;;6.87;4.53;;;;;;;;;;5154633;27;20022;-62
2021/07/28 09:29:27;;;;;;;7.73;4.70;;;;;;;;;;5154592;27;20221;-62
2021/07/28 09:32:01;;;;;;;6.27;4.43;;;;;;;;;;5144518;27;20035;-61
2021/07/28 09:34:28;;;;;;;9.07;6.03;;;;;;;;;;5133578;27;20023;-62
2021/07/28 09:36:56;;;;;;;8.97;6.20;;;;;;;;;;5132040;27;20027;-62
2021/07/28 09:39:33;;;;;;;9.67;6.57;;;;;;;;;;5128133;27;20548;-62
2021/07/28 09:42:09;;;;;;;7.27;5.77;;;;;;;;;;5138217;27;20023;-62
2021/07/28 09:44:36;;;;;;;8.83;6.10;;;;;;;;;;5148994;27;20029;-62
2021/07/28 09:47:19;;;;;;;8.13;5.47;;;;;;;;;;5150474;27;20031;-61
2021/07/28 09:49:47;;;;;;;6.67;5.00;;;;;;;;;;5154279;27;20097;-62
2021/07/28 09:52:17;;;;;;;8.40;5.30;;;;;;;;;;5141784;27;20039;-61
2021/07/28 09:54:44;;;;;;;6.77;4.97;;;;;;;;;;5133240;27;20062;-62
2021/07/28 09:57:14;;;;;;;6.20;4.70;;;;;;;;;;5133261;27;20105;-61
2021/07/28 09:59:46;;;;;;;7.90;5.53;;;;;;;;;;5130214;27;20219;-62
2021/07/28 10:02:16;;;;;;;8.50;5.17;;;;;;;;;;5139475;27;20030;-62
2021/07/28 10:04:48;;;;;;;10.13;5.07;;;;;;;;;;5148840;27;20030;-62
2021/07/28 10:07:16;;;;;;;6.10;4.40;;;;;;;;;;5148533;27;20094;-62
2021/07/28 10:09:45;;;;;;;7.70;4.73;;;;;;;;;;5141007;27;20406;-62
2021/07/28 10:12:12;;;;;;;7.63;4.93;;;;;;;;;;5132920;27;20023;-62
2021/07/28 10:14:42;;;;;;;6.07;4.90;;;;;;;;;;5132992;28;20027;-62
2021/07/28 10:17:09;;;;;;;6.43;4.50;;;;;;;;;;5133213;28;20019;-62
2021/07/28 10:19:36;;;;;;;9.43;5.33;;;;;;;;;;5141040;27;20030;-62
2021/07/28 10:22:03;;;;;;;6.67;5.07;;;;;;;;;;5150983;27;20530;-62
2021/07/28 10:24:30;;;;;;;9.37;5.37;;;;;;;;;;5148655;27;20031;-61
2021/07/28 10:26:59;;;;;;;6.77;4.80;;;;;;;;;;5138706;27;20058;-62
2021/07/28 10:29:26;;;;;;;8.07;5.40;;;;;;;;;;5127315;28;20092;-62
2021/07/28 10:31:54;;;;;;;11.20;5.57;;;;;;;;;;5129663;28;20417;-62
2021/07/28 10:34:23;;;;;;;9.40;6.83;;;;;;;;;;5133083;28;20031;-62
2021/07/28 10:36:54;;;;;;;8.80;6.27;;;;;;;;;;5139508;27;20027;-62
2021/07/28 10:39:39;;;;;;;7.93;5.30;;;;;;;;;;5153741;27;20018;-62
2021/07/28 10:42:05;;;;;;;;;;;;;;;;;;5154196;27;20118;-62
2021/07/28 10:44:52;;;;;;;9.17;5.37;;;;;;;;;;5150502;27;19903;-62
2021/07/28 10:47:19;;;;;;;10.07;5.40;;;;;;;;;;5136618;27;20024;-62
2021/07/28 10:49:48;;;;;;;7.07;5.17;;;;;;;;;;5127458;28;20027;-61
2021/07/28 10:52:33;;;;;;;8.37;5.63;;;;;;;;;;5126903;28;20371;-61
2021/07/28 10:55:00;;;;;;;11.05;6.35;;;;;;;;;;5131343;28;20047;-61
2021/07/28 10:57:36;;;;;;;7.00;5.47;;;;;;;;;;5144558;27;20058;-62
2021/07/28 11:00:05;;;;;;;9.50;6.10;;;;;;;;;;5153238;27;20480;-61
2021/07/28 11:02:50;;;;;;;7.53;5.10;;;;;;;;;;5153051;27;20022;-61
2021/07/28 11:05:22;;;;;;;8.20;5.10;;;;;;;;;;5153139;27;20030;-61
2021/07/28 11:08:07;;;;;;;7.97;5.00;;;;;;;;;;5135534;27;20023;-62
2021/07/28 11:10:38;;;;;;;9.98;5.53;;;;;;;;;;5127032;28;20023;-62
2021/07/28 11:13:09;;;;;;;9.20;5.20;;;;;;;;;;5127270;28;20043;-61
2021/07/28 11:15:36;;;;;;;8.67;5.67;;;;;;;;;;5127377;28;20015;-61
2021/07/28 11:18:03;;;;;;;6.97;4.83;;;;;;;;;;5145458;27;20035;-61
2021/07/28 11:20:31;;;;;;;10.07;5.77;;;;;;;;;;5156207;27;20034;-61
2021/07/28 11:23:17;;;;;;;7.57;5.57;;;;;;;;;;5156868;27;20018;-62
2021/07/28 11:25:44;;;;;;;5.90;4.47;;;;;;;;;;5104983;27;20079;-62
2021/07/28 11:28:11;;;;;;;9.10;5.27;;;;;;;;;;5141704;27;20031;-62
2021/07/28 11:30:38;;;;;;;8.27;5.63;;;;;;;;;;5130764;27;20027;-61
2021/07/28 11:33:14;;;;;;;8.57;4.90;;;;;;;;;;5137597;27;20035;-61
2021/07/28 11:35:41;;;;;;;7.90;5.03;;;;;;;;;;5151196;27;20037;-62
2021/07/28 11:38:14;;;;;;;7.70;4.60;;;;;;;;;;5137778;27;20516;-62
2021/07/28 11:40:44;;;;;;;7.30;5.57;;;;;;;;;;5135889;27;20469;-62
2021/07/28 11:43:29;;;;;;;6.07;4.17;;;;;;;;;;5139436;27;20027;-62
2021/07/28 11:45:57;;;;;;;6.13;4.50;;;;;;;;;;5119102;27;20365;-64
2021/07/28 11:48:29;;;;;;;10.33;6.00;;;;;;;;;;5135626;27;20023;-62
2021/07/28 11:50:56;;;;;;;9.47;5.70;;;;;;;;;;5142090;27;20476;-62
2021/07/28 11:53:24;;;;;;;8.50;5.87;;;;;;;;;;5134087;27;20060;-62
2021/07/28 11:55:50;;;;;;;6.60;5.10;;;;;;;;;;5133243;27;20026;-62
2021/07/28 11:58:17;;;;;;;9.43;5.37;;;;;;;;;;5150755;27;20094;-63
2021/07/28 12:00:47;;;;;;;9.20;5.47;;;;;;;;;;5151743;27;20023;-62
2021/07/28 12:03:23;;;;;;;6.63;5.13;;;;;;;;;;5155708;27;20023;-62
2021/07/28 12:05:58;;;;;;;8.73;5.13;;;;;;;;;;5156173;27;20023;-62
2021/07/28 12:08:31;;;;;;;7.75;4.57;;;;;;;;;;5149708;27;20031;-62
2021/07/28 12:11:04;;;;;;;7.20;5.30;;;;;;;;;;5135372;27;20028;-62
2021/07/28 12:13:40;;;;;;;8.20;5.77;;;;;;;;;;5132518;27;20362;-62
2021/07/28 12:16:07;;;;;;;10.93;5.63;;;;;;;;;;5129956;27;20477;-62
2021/07/28 12:18:47;;;;;;;8.40;5.03;;;;;;;;;;5129964;27;20034;-62
2021/07/28 12:21:14;;;;;;;7.77;4.93;;;;;;;;;;5129733;27;20015;-62
2021/07/28 12:23:51;;;;;;;7.10;4.93;;;;;;;;;;5131552;27;20031;-62
2021/07/28 12:26:38;;;;;;;10.90;5.30;;;;;;;;;;5121525;27;20039;-62
2021/07/28 12:29:05;;;;;;;12.03;5.57;;;;;;;;;;5155581;27;20083;-62
2021/07/28 12:31:31;;;;;;;9.03;5.17;;;;;;;;;;5155368;27;20019;-62
2021/07/28 12:34:16;;;;;;;15.93;6.03;;;;;;;;;;5155781;27;20047;-62
2021/07/28 12:36:43;;;;;;;12.98;5.70;;;;;;;;;;5143493;27;20055;-63
2021/07/28 12:39:10;;;;;;;8.23;5.30;;;;;;;;;;5129383;27;20031;-62
2021/07/28 12:41:37;;;;;;;7.10;5.00;;;;;;;;;;5129436;27;20019;-62
2021/07/28 12:44:04;;;;;;;6.77;5.23;;;;;;;;;;5129552;27;20051;-63
2021/07/28 12:46:30;;;;;;;9.00;5.37;;;;;;;;;;5137886;27;20093;-62
2021/07/28 12:48:57;;;;;;;10.40;5.47;;;;;;;;;;5155080;27;20469;-62
2021/07/28 12:51:24;;;;;;;9.47;5.20;;;;;;;;;;5155277;27;20457;-62
2021/07/28 12:53:51;;;;;;;11.67;6.53;;;;;;;;;;5155402;27;20488;-62
2021/07/28 12:56:17;;;;;;;7.50;5.50;;;;;;;;;;5151333;27;20469;-62
2021/07/28 12:58:44;;;;;;;8.07;5.77;;;;;;;;;;5131271;27;20498;-62
2021/07/28 13:01:11;;;;;;;8.63;5.73;;;;;;;;;;5129238;27;20030;-62
2021/07/28 13:03:41;;;;;;;8.20;5.47;;;;;;;;;;5128915;27;20023;-62
2021/07/28 13:06:09;;;;;;;7.93;5.63;;;;;;;;;;5130567;27;20381;-63
2021/07/28 13:08:36;;;;;;;10.50;6.33;;;;;;;;;;5152328;27;20031;-62
2021/07/28 13:11:03;;;;;;;12.83;5.80;;;;;;;;;;5155134;27;20038;-62
2021/07/28 13:13:29;;;;;;;10.97;6.07;;;;;;;;;;5154842;27;20102;-63
2021/07/28 13:15:59;;;;;;;9.77;6.07;;;;;;;;;;5154546;27;20025;-62
2021/07/28 13:18:26;;;;;;;10.57;5.57;;;;;;;;;;5134113;27;20462;-62
2021/07/28 13:20:53;;;;;;;10.23;6.27;;;;;;;;;;5130783;27;20115;-63
2021/07/28 13:23:20;;;;;;;9.67;5.77;;;;;;;;;;5128532;27;20019;-62
2021/07/28 13:25:47;;;;;;;9.53;5.43;;;;;;;;;;5128567;27;20027;-62
2021/07/28 13:28:15;;;;;;;9.13;5.20;;;;;;;;;;5147635;27;20087;-63
2021/07/28 13:30:41;;;;;;;10.27;5.10;;;;;;;;;;5151435;27;20030;-62
2021/07/28 13:33:08;;;;;;;10.47;4.87;;;;;;;;;;5154394;27;20354;-62
2021/07/28 13:35:36;;;;;;;7.90;4.93;;;;;;;;;;5154650;27;20102;-62
2021/07/28 13:38:03;;;;;;;7.63;5.00;;;;;;;;;;5136067;27;20346;-63
2021/07/28 13:40:29;;;;;;;6.67;4.40;;;;;;;;;;5133564;27;20401;-62
2021/07/28 13:42:56;;;;;;;8.07;5.00;;;;;;;;;;5130972;27;20023;-63
2021/07/28 13:45:23;;;;;;;7.00;4.40;;;;;;;;;;5128142;27;20566;-63
2021/07/28 13:47:50;;;;;;;6.27;4.20;;;;;;;;;;5143330;27;20027;-63
2021/07/28 13:50:18;;;;;;;10.97;4.20;;;;;;;;;;5137164;27;20031;-63
2021/07/28 13:52:46;;;;;;;8.37;4.70;;;;;;;;;;5129682;27;20050;-63
2021/07/28 13:55:13;;;;;;;7.00;4.10;;;;;;;;;;5132960;27;20026;-63
2021/07/28 13:57:41;;;;;;;5.00;3.87;;;;;;;;;;5133263;27;20015;-63
2021/07/28 14:00:10;;;;;;;6.03;4.00;;;;;;;;;;5141873;27;20057;-63
2021/07/28 14:02:37;;;;;;;7.77;5.03;;;;;;;;;;5154054;27;20022;-63
2021/07/28 14:05:04;;;;;;;9.47;5.20;;;;;;;;;;5152008;27;20034;-63
2021/07/28 14:07:31;;;;;;;9.73;4.83;;;;;;;;;;5148608;27;20041;-63
2021/07/28 14:09:58;;;;;;;9.87;4.63;;;;;;;;;;5141094;27;20034;-63
2021/07/28 14:12:25;;;;;;;6.70;4.30;;;;;;;;;;5127418;27;20035;-63
2021/07/28 14:14:52;;;;;;;11.97;4.20;;;;;;;;;;5128644;28;20069;-63
2021/07/28 14:17:19;;;;;;;7.90;5.03;;;;;;;;;;5133296;28;20023;-63
2021/07/28 14:19:46;;;;;;;6.63;4.97;;;;;;;;;;5138235;27;20380;-63
2021/07/28 14:22:12;;;;;;;5.47;4.13;;;;;;;;;;5153932;27;20467;-63
2021/07/28 14:24:39;;;;;;;9.70;5.13;;;;;;;;;;5153698;27;20022;-63
2021/07/28 14:27:06;;;;;;;9.83;4.77;;;;;;;;;;5152584;27;20477;-63
2021/07/28 14:29:33;;;;;;;8.13;4.40;;;;;;;;;;5144408;27;20492;-63
2021/07/28 14:32:00;;;;;;;6.37;3.43;;;;;;;;;;5127512;28;20042;-63
2021/07/28 14:34:26;;;;;;;7.63;4.03;;;;;;;;;;5127836;28;20630;-63
2021/07/28 14:36:53;;;;;;;9.67;5.03;;;;;;;;;;5128060;28;20027;-63
2021/07/28 14:39:21;;;;;;;10.03;4.13;;;;;;;;;;5133844;27;20033;-64
2021/07/28 14:41:47;;;;;;;10.30;4.10;;;;;;;;;;5153681;27;20022;-63
2021/07/28 14:44:14;;;;;;;7.47;4.80;;;;;;;;;;5153751;27;20019;-64
2021/07/28 14:46:42;;;;;;;9.97;4.07;;;;;;;;;;5153222;27;20022;-64
2021/07/28 14:49:09;;;;;;;7.27;3.60;;;;;;;;;;5153024;27;20019;-63
2021/07/28 14:51:36;;;;;;;8.70;4.00;;;;;;;;;;5127648;27;20019;-64